메인 페이지
METAR-TAF:

METAR-TAF

공항 :

리야드, 사우디아라비아

위도: 24-43N, 경도: 046-44E, 고도: 635m

현재 날씨관측

예보는 3 시간 58분 전, 13:00시(UTC)에 발표되었습니다.
동북동5kt
온도 42°C
습도 6%
기압 1009 hPa
시정 10km 이상
1500m 미만 상공 구름 및 적란운 없음

METAR: OERY 311300Z 06005KT CAVOK 42/M03 Q1009

시각: 19:58 (16:58 UTC)

예보

예보는 5 시간 58분 전, 11:00시(UTC)에 발표되었습니다.
예보 대상 시간: 31일 12시부터 01일 18시까지 (UTC)
동북동13kt
시정: 8000m
일시적
31일 12시부터 31일 20시까지 (UTC)
시정: 4000m
황사
전환 중
31일 18시부터 31일 20시까지 (UTC)
여러 방향의 바람 3kt

TAF: OERY 311100Z 3112/0118 07013KT 8000 NSC TEMPO 3112/3120 4000 DU BECMG 3118/3120 VRB03KT

4,000개 이상의 공항 관측 자료 및 예보 (METAR 및 TAF 보고).

지도상에서 검색 가능한 기상관측소가 노란 점과 빨간 점으로 표시되어 있습니다.

기상관측소 명을 보려면 표시 위로 마우스를 이동하세요.

날씨 관측과 예보를 보려면 클릭하세요.

지도 변경 : 확대하려면 엑스 표시가 있는 녹색 버튼, 축소하려면 빼기 표시가 있는 녹색 버튼, 다음 페이지의 지도를 보려면 녹색 화살표를 클릭하세요.


METAR-TAF: